Olmstedville, New York
Current Conditions -  °F | °C
As of 12:53 PM on Saturday 25 Oct 2014 (Local Time) from KGFL Reporting Station
Clear Clear  
Wind Chill: 57°   Ceiling: Unl
Heat Index: 57°   Visibility: 10mi
Dew Point: 46°   Wind: 8mph
Humidity: 67%   Direction: 150°SSE
Pressure: 29.69"   Gusts: NA
Location:  43.77°N, 73.93°W
Report Text: KGFL 251653Z AUTO 15007KT 10SM CLR 14/08 A2969 RMK AO2 SLP057 T01390078
Loading
Personal Weather Stations






























Interactive Weather Map
Tropical Storm Tracking
New forecast layout! Learn more

10-Day Weather Forecast

Advertisements
Track Severe Weather on mobile